createdAt,value
2023-05-05T00:00:01.890Z,101505.81
2023-05-05T00:00:10.623Z,101493.66
2023-05-05T00:00:28.426Z,101481.56
2023-05-05T00:00:36.343Z,101500.75
2023-05-05T00:00:43.528Z,101499.78
2023-05-05T00:01:03.290Z,101498.06
2023-05-05T00:01:10.555Z,101503.31
2023-05-05T00:01:20.275Z,101498.09
2023-05-05T00:01:36.921Z,101493.78
2023-05-05T00:01:44.085Z,101494.59
2023-05-05T00:01:51.315Z,101487.72
2023-05-05T00:02:08.494Z,101486.81
2023-05-05T00:02:16.044Z,101494.66
2023-05-05T00:02:23.595Z,101484.25
2023-05-05T00:02:41.301Z,101494.59
2023-05-05T00:02:50.667Z,101487.66
2023-05-05T00:02:58.883Z,101473.78
2023-05-05T00:03:13.318Z,101484.25
2023-05-05T00:03:21.024Z,101495.53
2023-05-05T00:03:29.452Z,101491.16
2023-05-05T00:03:44.599Z,101492.13
2023-05-05T00:03:52.093Z,101488.56
2023-05-05T00:04:02.288Z,101488.59
2023-05-05T00:04:18.155Z,101491.16
2023-05-05T00:04:25.404Z,101492.06
2023-05-05T00:04:34.002Z,101478.22
2023-05-05T00:04:51.261Z,101480.88
2023-05-05T00:04:59.046Z,101491.16
2023-05-05T00:05:07.333Z,101494.69
2023-05-05T00:05:21.839Z,101480.81
2023-05-05T00:05:31.839Z,101486.78
2023-05-05T00:05:40.078Z,101479.91
2023-05-05T00:05:57.637Z,101485.06
2023-05-05T00:06:05.723Z,101487.69
2023-05-05T00:06:13.658Z,101472.13
2023-05-05T00:06:28.797Z,101486.88
2023-05-05T00:06:36.004Z,101491.16
2023-05-05T00:06:43.178Z,101491.16
2023-05-05T00:06:58.427Z,101485.16
2023-05-05T00:07:08.264Z,101488.63
2023-05-05T00:07:15.566Z,101493.78
2023-05-05T00:07:29.829Z,101490.31
2023-05-05T00:07:37.012Z,101487.78
2023-05-05T00:07:44.196Z,101492.06
2023-05-05T00:07:59.111Z,101489.50
2023-05-05T00:08:14.142Z,101486.06
2023-05-05T00:08:21.918Z,101468.72
2023-05-05T00:08:36.528Z,101483.50
2023-05-05T00:08:44.816Z,101470.53
2023-05-05T00:08:54.624Z,101487.72
2023-05-05T00:09:01.816Z,101482.53
2023-05-05T00:09:16.393Z,101491.16
2023-05-05T00:09:23.550Z,101480.84
2023-05-05T00:09:37.808Z,101489.50
2023-05-05T00:09:44.988Z,101477.41
2023-05-05T00:09:59.252Z,101493.88
2023-05-05T00:10:07.578Z,101468.78
2023-05-05T00:10:22.340Z,101475.63
2023-05-05T00:10:32.678Z,101467.00
2023-05-05T00:10:42.864Z,101487.72
2023-05-05T00:10:51.232Z,101486.88
2023-05-05T00:11:05.991Z,101492.09
2023-05-05T00:11:13.230Z,101486.00
2023-05-05T00:11:30.127Z,101477.44
2023-05-05T00:11:37.475Z,101486.00
2023-05-05T00:11:44.821Z,101481.69
2023-05-05T00:11:52.035Z,101479.19
2023-05-05T00:12:07.331Z,101483.47
2023-05-05T00:12:14.625Z,101483.44
2023-05-05T00:12:34.184Z,101472.16
2023-05-05T00:12:41.438Z,101461.81
2023-05-05T00:12:49.307Z,101483.50
2023-05-05T00:12:56.537Z,101488.66
2023-05-05T00:13:11.588Z,101469.63
2023-05-05T00:13:19.978Z,101470.44
2023-05-05T00:13:34.426Z,101467.88
2023-05-05T00:13:41.711Z,101473.03
2023-05-05T00:13:51.698Z,101481.75
2023-05-05T00:13:58.821Z,101467.00
2023-05-05T00:14:14.215Z,101468.72
2023-05-05T00:14:21.554Z,101472.22
2023-05-05T00:14:35.819Z,101474.78
2023-05-05T00:14:43.728Z,101473.97
2023-05-05T00:14:58.343Z,101477.28
2023-05-05T00:15:08.169Z,101466.75
2023-05-05T00:15:15.623Z,101470.22
2023-05-05T00:15:22.916Z,101475.53
2023-05-05T00:15:41.982Z,101462.69
2023-05-05T00:15:52.618Z,101455.78
2023-05-05T00:16:00.363Z,101467.84
2023-05-05T00:16:08.292Z,101458.38
2023-05-05T00:16:15.705Z,101467.91
2023-05-05T00:16:23.654Z,101461.88
2023-05-05T00:16:51.660Z,101470.50
2023-05-05T00:16:58.875Z,101469.72
2023-05-05T00:17:06.083Z,101470.53
2023-05-05T00:17:13.424Z,101475.75
2023-05-05T00:17:22.861Z,101473.16
2023-05-05T00:17:30.057Z,101462.78
2023-05-05T00:17:56.353Z,101474.94
2023-05-05T00:18:03.737Z,101477.53
2023-05-05T00:18:11.162Z,101472.31
2023-05-05T00:18:18.994Z,101470.56
2023-05-05T00:18:26.205Z,101464.53
2023-05-05T00:18:34.090Z,101455.00
2023-05-05T00:18:59.342Z,101468.81
2023-05-05T00:19:06.906Z,101467.13
2023-05-05T00:19:16.171Z,101471.38
2023-05-05T00:19:25.762Z,101451.53
2023-05-05T00:19:33.314Z,101465.41
2023-05-05T00:19:41.114Z,101450.75
2023-05-05T00:20:07.418Z,101465.41
2023-05-05T00:20:15.127Z,101475.81
2023-05-05T00:20:23.264Z,101470.56
2023-05-05T00:20:30.471Z,101469.72
2023-05-05T00:20:37.850Z,101473.19
2023-05-05T00:20:47.499Z,101450.66
2023-05-05T00:21:09.569Z,101461.88
2023-05-05T00:21:16.870Z,101468.78
2023-05-05T00:21:28.003Z,101470.53
2023-05-05T00:21:35.183Z,101472.25
2023-05-05T00:21:42.352Z,101454.13
2023-05-05T00:21:51.700Z,101462.72
2023-05-05T00:22:10.963Z,101468.72
2023-05-05T00:22:18.409Z,101465.28
2023-05-05T00:22:33.143Z,101471.44
2023-05-05T00:22:40.304Z,101459.28
2023-05-05T00:22:47.763Z,101472.25
2023-05-05T00:22:54.994Z,101475.69
2023-05-05T00:23:19.608Z,101470.53
2023-05-05T00:23:26.787Z,101458.41
2023-05-05T00:23:34.186Z,101453.25
2023-05-05T00:23:41.461Z,101462.63
2023-05-05T00:23:48.972Z,101463.50
2023-05-05T00:23:56.219Z,101458.41
2023-05-05T00:24:29.463Z,101467.00
2023-05-05T00:24:36.715Z,101466.16
2023-05-05T00:24:44.149Z,101454.00
2023-05-05T00:24:51.490Z,101408.19
2023-05-05T00:25:01.325Z,101457.44
2023-05-05T00:25:09.526Z,101464.34
2023-05-05T00:25:31.177Z,101444.53
2023-05-05T00:25:39.576Z,101435.84
2023-05-05T00:25:47.003Z,101458.31
2023-05-05T00:25:54.272Z,101454.84
2023-05-05T00:26:01.471Z,101433.19
2023-05-05T00:26:18.764Z,101458.28
2023-05-05T00:26:37.504Z,101458.28
2023-05-05T00:26:44.736Z,101454.81
2023-05-05T00:26:51.974Z,101459.19
2023-05-05T00:26:59.137Z,101454.94
2023-05-05T00:27:06.651Z,101453.97
2023-05-05T00:27:23.541Z,101434.78
2023-05-05T00:27:40.826Z,101453.66
2023-05-05T00:27:48.548Z,101449.38
2023-05-05T00:27:56.952Z,101425.34
2023-05-05T00:28:07.348Z,101450.22
2023-05-05T00:28:14.711Z,101453.66
2023-05-05T00:28:29.640Z,101448.41
2023-05-05T00:28:39.422Z,101432.13
2023-05-05T00:28:55.377Z,101432.19
2023-05-05T00:29:03.213Z,101456.34
2023-05-05T00:29:10.375Z,101440.78
2023-05-05T00:29:17.750Z,101457.28
2023-05-05T00:29:32.250Z,101442.56
2023-05-05T00:29:41.779Z,101446.81
2023-05-05T00:29:59.444Z,101451.88
2023-05-05T00:30:08.381Z,101448.56
2023-05-05T00:30:15.794Z,101441.69
2023-05-05T00:30:23.667Z,101452.09
2023-05-05T00:30:39.946Z,101438.25
2023-05-05T00:30:47.213Z,101443.44
2023-05-05T00:31:01.953Z,101432.22
2023-05-05T00:31:09.358Z,101456.47
2023-05-05T00:31:19.606Z,101434.84
2023-05-05T00:31:27.156Z,101458.19
2023-05-05T00:31:41.769Z,101450.38
2023-05-05T00:31:51.022Z,101454.84
2023-05-05T00:32:05.783Z,101446.09
2023-05-05T00:32:12.995Z,101461.69
2023-05-05T00:32:20.206Z,101451.34
2023-05-05T00:32:27.480Z,101451.34
2023-05-05T00:32:42.332Z,101456.50
2023-05-05T00:32:52.432Z,101459.09
2023-05-05T00:33:07.702Z,101453.09
2023-05-05T00:33:14.940Z,101461.78
2023-05-05T00:33:22.297Z,101460.03
2023-05-05T00:33:29.566Z,101464.38
2023-05-05T00:33:45.030Z,101434.97
2023-05-05T00:33:59.489Z,101461.78
2023-05-05T00:34:16.312Z,101463.50
2023-05-05T00:34:23.481Z,101469.59
2023-05-05T00:34:30.682Z,101451.47
2023-05-05T00:34:37.817Z,101443.72
2023-05-05T00:34:46.657Z,101467.88
2023-05-05T00:35:01.665Z,101462.66
2023-05-05T00:35:17.117Z,101459.19
2023-05-05T00:35:27.135Z,101467.84
2023-05-05T00:35:34.562Z,101457.44
2023-05-05T00:35:41.922Z,101460.91
2023-05-05T00:35:50.989Z,101460.88
2023-05-05T00:36:08.548Z,101448.84
2023-05-05T00:36:22.998Z,101460.09
2023-05-05T00:36:30.614Z,101464.38
2023-05-05T00:36:37.833Z,101450.53
2023-05-05T00:36:45.049Z,101452.25
2023-05-05T00:36:52.242Z,101452.25
2023-05-05T00:37:17.473Z,101459.16
2023-05-05T00:37:24.866Z,101453.97
2023-05-05T00:37:32.338Z,101465.19
2023-05-05T00:37:39.678Z,101457.47
2023-05-05T00:37:47.310Z,101466.94
2023-05-05T00:37:55.755Z,101465.19
2023-05-05T00:38:18.609Z,101463.53
2023-05-05T00:38:25.717Z,101457.44
2023-05-05T00:38:34.337Z,101465.22
2023-05-05T00:38:44.143Z,101468.72
2023-05-05T00:38:51.280Z,101465.28
2023-05-05T00:38:58.755Z,101469.56
2023-05-05T00:39:20.797Z,101463.53
2023-05-05T00:39:28.398Z,101459.13
2023-05-05T00:39:35.545Z,101448.00
2023-05-05T00:39:44.330Z,101447.91
2023-05-05T00:39:52.041Z,101455.63
2023-05-05T00:39:59.994Z,101454.84
2023-05-05T00:40:28.770Z,101457.44
2023-05-05T00:40:36.998Z,101450.53
2023-05-05T00:40:45.224Z,101450.34
2023-05-05T00:40:52.704Z,101446.84
2023-05-05T00:40:59.930Z,101440.75
2023-05-05T00:41:07.555Z,101449.38
2023-05-05T00:41:29.135Z,101423.41
2023-05-05T00:41:44.039Z,101448.44
2023-05-05T00:41:51.258Z,101453.69
2023-05-05T00:42:01.465Z,101451.94
2023-05-05T00:42:08.613Z,101452.19
2023-05-05T00:42:18.123Z,101447.91
2023-05-05T00:42:42.070Z,101452.31
2023-05-05T00:42:50.967Z,101448.06
2023-05-05T00:42:59.740Z,101449.69
2023-05-05T00:43:07.854Z,101451.31
2023-05-05T00:43:15.149Z,101453.88
2023-05-05T00:43:22.290Z,101448.75
2023-05-05T00:43:46.782Z,101455.72
2023-05-05T00:43:53.974Z,101437.59
2023-05-05T00:44:01.166Z,101460.06
2023-05-05T00:44:09.888Z,101460.91
2023-05-05T00:44:17.664Z,101465.25
2023-05-05T00:44:39.552Z,101467.94
2023-05-05T00:44:47.209Z,101472.28
2023-05-05T00:44:54.402Z,101459.28
2023-05-05T00:45:02.387Z,101448.06
2023-05-05T00:45:10.836Z,101465.34
2023-05-05T00:45:22.490Z,101454.13
2023-05-05T00:45:42.938Z,101458.41
2023-05-05T00:45:57.952Z,101466.19
2023-05-05T00:46:19.490Z,101461.81
2023-05-05T00:46:29.774Z,101462.69
2023-05-05T00:46:40.844Z,101452.34
2023-05-05T00:46:48.200Z,101456.66
2023-05-05T00:46:55.470Z,101452.31
2023-05-05T00:47:02.828Z,101465.28
2023-05-05T00:47:20.203Z,101455.78
2023-05-05T00:47:35.128Z,101466.16
2023-05-05T00:47:45.508Z,101469.66
2023-05-05T00:47:54.763Z,101452.31
2023-05-05T00:48:02.241Z,101458.41
2023-05-05T00:48:09.678Z,101470.53
2023-05-05T00:48:32.819Z,101460.94
2023-05-05T00:48:40.773Z,101469.59
2023-05-05T00:48:48.078Z,101469.56
2023-05-05T00:48:55.458Z,101462.72
2023-05-05T00:49:02.932Z,101465.22
2023-05-05T00:49:10.644Z,101467.78
2023-05-05T00:49:36.178Z,101458.31
2023-05-05T00:49:43.700Z,101468.66
2023-05-05T00:49:51.504Z,101463.56
2023-05-05T00:50:01.701Z,101467.91
2023-05-05T00:50:10.306Z,101466.16
2023-05-05T00:50:23.953Z,101458.41
2023-05-05T00:50:44.231Z,101468.78
2023-05-05T00:50:51.499Z,101463.59
2023-05-05T00:50:59.852Z,101463.56
2023-05-05T00:51:09.551Z,101467.06
2023-05-05T00:51:19.693Z,101463.59
2023-05-05T00:51:28.415Z,101462.63
2023-05-05T00:52:10.992Z,101462.69
2023-05-05T00:52:21.257Z,101470.44
2023-05-05T00:52:28.582Z,101469.56
2023-05-05T00:52:36.512Z,101461.81
2023-05-05T00:52:43.669Z,101458.38
2023-05-05T00:52:53.000Z,101460.06
2023-05-05T00:53:12.434Z,101459.13
2023-05-05T00:53:21.913Z,101461.66
2023-05-05T00:53:29.355Z,101464.31
2023-05-05T00:53:39.255Z,101464.38
2023-05-05T00:53:47.080Z,101455.78
2023-05-05T00:53:54.776Z,101465.22
2023-05-05T00:54:18.015Z,101466.16
2023-05-05T00:54:25.643Z,101460.06
2023-05-05T00:54:33.683Z,101475.69
2023-05-05T00:54:43.497Z,101472.25
2023-05-05T00:54:52.804Z,101473.97
2023-05-05T00:55:00.236Z,101442.84
2023-05-05T00:55:18.262Z,101478.31
2023-05-05T00:55:26.340Z,101477.47
2023-05-05T00:55:35.145Z,101474.88
2023-05-05T00:55:52.481Z,101479.19
2023-05-05T00:55:59.782Z,101481.78
2023-05-05T00:56:10.158Z,101484.38
2023-05-05T00:56:19.586Z,101477.47
2023-05-05T00:56:27.539Z,101474.00
2023-05-05T00:56:42.069Z,101483.50
2023-05-05T00:56:59.343Z,101483.63
2023-05-05T00:57:08.060Z,101491.41
2023-05-05T00:57:18.493Z,101479.25
2023-05-05T00:57:28.747Z,101482.69
2023-05-05T00:57:36.103Z,101494.91
2023-05-05T00:57:46.198Z,101492.28
2023-05-05T00:58:02.125Z,101482.84
2023-05-05T00:58:10.203Z,101469.88
2023-05-05T00:58:25.562Z,101496.72
2023-05-05T00:58:32.839Z,101491.50
2023-05-05T00:58:41.918Z,101492.41
2023-05-05T00:58:52.531Z,101493.31
2023-05-05T00:59:10.504Z,101491.47
2023-05-05T00:59:19.141Z,101484.59
2023-05-05T00:59:29.232Z,101487.16
2023-05-05T00:59:38.390Z,101499.28
2023-05-05T00:59:49.312Z,101506.28
2023-05-05T00:59:57.609Z,101482.88
2023-05-05T01:00:14.237Z,101493.28
2023-05-05T01:00:25.773Z,101494.16
2023-05-05T01:00:33.289Z,101503.66
2023-05-05T01:00:40.473Z,101493.31
2023-05-05T01:00:55.296Z,101495.84
2023-05-05T01:01:04.849Z,101497.66
2023-05-05T01:01:22.062Z,101495.97
2023-05-05T01:01:30.624Z,101497.56
2023-05-05T01:01:38.007Z,101496.72
2023-05-05T01:01:46.206Z,101487.16
2023-05-05T01:01:56.140Z,101489.88
2023-05-05T01:02:13.957Z,101496.78
2023-05-05T01:02:22.837Z,101495.88
2023-05-05T01:02:31.350Z,101496.75
2023-05-05T01:02:39.924Z,101495.91
2023-05-05T01:02:47.501Z,101501.94
2023-05-05T01:03:02.353Z,101495.00
2023-05-05T01:03:17.072Z,101502.81
2023-05-05T01:03:27.283Z,101499.31
2023-05-05T01:03:36.860Z,101498.44
2023-05-05T01:03:44.242Z,101498.47
2023-05-05T01:03:51.603Z,101501.09
2023-05-05T01:04:06.533Z,101495.00
2023-05-05T01:04:21.088Z,101500.19
2023-05-05T01:04:28.250Z,101502.81
2023-05-05T01:04:42.555Z,101498.53
2023-05-05T01:04:49.748Z,101501.97
2023-05-05T01:05:00.470Z,101487.31
2023-05-05T01:05:09.040Z,101495.97
2023-05-05T01:05:27.201Z,101508.94
2023-05-05T01:05:53.488Z,101505.47
2023-05-05T01:06:16.423Z,101497.66
2023-05-05T01:06:41.106Z,101503.66
2023-05-05T01:07:02.255Z,101489.78
2023-05-05T01:07:22.467Z,101497.56
2023-05-05T01:07:40.441Z,101494.13
2023-05-05T01:08:03.724Z,101479.50
2023-05-05T01:08:30.578Z,101488.06
2023-05-05T01:08:51.475Z,101485.44
2023-05-05T01:09:07.873Z,101494.13
2023-05-05T01:09:26.565Z,101480.19
2023-05-05T01:09:46.418Z,101490.66
2023-05-05T01:10:17.984Z,101480.16
2023-05-05T01:10:34.162Z,101491.47
2023-05-05T01:10:46.406Z,101483.63
2023-05-05T01:10:58.260Z,101482.75
2023-05-05T01:11:12.778Z,101474.16
2023-05-05T01:11:27.302Z,101475.88
2023-05-05T01:11:45.702Z,101488.06
2023-05-05T01:12:01.438Z,101480.28
2023-05-05T01:12:18.181Z,101495.03
2023-05-05T01:12:37.521Z,101493.34
2023-05-05T01:12:58.426Z,101488.09
2023-05-05T01:13:23.098Z,101504.53
2023-05-05T01:13:40.547Z,101490.72
2023-05-05T01:13:58.186Z,101499.22
2023-05-05T01:14:13.793Z,101493.94
2023-05-05T01:14:28.814Z,101500.06
2023-05-05T01:14:40.380Z,101507.06
2023-05-05T01:15:01.495Z,101489.81
2023-05-05T01:15:21.145Z,101515.03
2023-05-05T01:15:33.634Z,101512.41
2023-05-05T01:15:46.541Z,101506.44
2023-05-05T01:16:02.101Z,101508.19
2023-05-05T01:16:15.176Z,101507.28
2023-05-05T01:16:27.172Z,101507.41
2023-05-05T01:16:42.279Z,101494.31
2023-05-05T01:16:57.448Z,101510.81
2023-05-05T01:17:14.176Z,101516.00
2023-05-05T01:17:27.083Z,101506.44
2023-05-05T01:17:41.982Z,101517.75
2023-05-05T01:17:59.446Z,101510.78
2023-05-05T01:18:15.176Z,101495.16
2023-05-05T01:18:32.036Z,101504.78
2023-05-05T01:18:46.441Z,101513.38
2023-05-05T01:19:01.140Z,101515.16
2023-05-05T01:19:28.946Z,101509.13
2023-05-05T01:20:06.157Z,101508.22
2023-05-05T01:20:21.765Z,101510.00
2023-05-05T01:20:36.374Z,101503.94
2023-05-05T01:20:49.918Z,101503.91
2023-05-05T01:21:09.562Z,101504.03
2023-05-05T01:21:23.849Z,101504.84
2023-05-05T01:21:36.319Z,101511.81
2023-05-05T01:21:48.748Z,101498.75
2023-05-05T01:22:00.787Z,101502.19
2023-05-05T01:22:11.436Z,101512.63
2023-05-05T01:22:23.392Z,101492.69
2023-05-05T01:22:40.830Z,101510.88
2023-05-05T01:22:57.379Z,101508.25
2023-05-05T01:23:07.685Z,101507.41
2023-05-05T01:23:25.172Z,101512.63
2023-05-05T01:23:53.339Z,101494.53
2023-05-05T01:24:29.367Z,101510.97
2023-05-05T01:24:57.255Z,101509.25
2023-05-05T01:25:22.763Z,101503.22
2023-05-05T01:26:23.560Z,101515.34
2023-05-05T01:26:51.457Z,101512.88
2023-05-05T01:27:27.445Z,101512.88
2023-05-05T01:28:00.894Z,101511.19
2023-05-05T01:28:27.148Z,101493.00
2023-05-05T01:29:01.714Z,101504.31
2023-05-05T01:29:30.488Z,101504.34
2023-05-05T01:30:06.795Z,101513.94
2023-05-05T01:30:43.430Z,101504.41
2023-05-05T01:31:06.860Z,101506.94
2023-05-05T01:31:33.252Z,101501.78
2023-05-05T01:31:52.097Z,101511.34
2023-05-05T01:32:03.628Z,101514.00
2023-05-05T01:32:13.822Z,101507.91
2023-05-05T01:32:25.924Z,101512.25
2023-05-05T01:32:38.846Z,101489.78
2023-05-05T01:32:51.229Z,101504.50
2023-05-05T01:33:04.204Z,101510.53
2023-05-05T01:33:18.692Z,101500.16
2023-05-05T01:33:29.299Z,101513.13
2023-05-05T01:33:44.345Z,101514.88
2023-05-05T01:33:57.598Z,101512.25
2023-05-05T01:34:09.348Z,101508.88
2023-05-05T01:34:21.112Z,101515.78
2023-05-05T01:34:35.194Z,101514.03
2023-05-05T01:34:49.704Z,101502.81
2023-05-05T01:35:02.758Z,101514.03
2023-05-05T01:35:18.550Z,101498.50
2023-05-05T01:35:30.139Z,101512.34
2023-05-05T01:35:42.520Z,101515.84
2023-05-05T01:35:55.098Z,101512.44
2023-05-05T01:36:07.858Z,101512.44
2023-05-05T01:36:24.567Z,101518.50
2023-05-05T01:36:37.484Z,101518.50
2023-05-05T01:36:58.847Z,101513.28
2023-05-05T01:37:11.818Z,101515.88
2023-05-05T01:37:24.913Z,101515.03
2023-05-05T01:37:41.542Z,101513.28
2023-05-05T01:37:58.248Z,101515.91
2023-05-05T01:38:12.093Z,101514.25
2023-05-05T01:38:23.297Z,101506.41
2023-05-05T01:38:37.261Z,101513.34
2023-05-05T01:38:49.241Z,101506.44
2023-05-05T01:39:02.405Z,101506.41
2023-05-05T01:39:16.268Z,101518.63
2023-05-05T01:39:28.076Z,101521.25
2023-05-05T01:39:39.649Z,101508.22
2023-05-05T01:39:53.375Z,101522.06
2023-05-05T01:40:06.405Z,101516.88
2023-05-05T01:40:18.520Z,101515.94
2023-05-05T01:40:32.865Z,101514.22
2023-05-05T01:40:46.020Z,101513.41
2023-05-05T01:41:02.028Z,101516.88
2023-05-05T01:41:15.568Z,101516.88
2023-05-05T01:41:29.557Z,101514.28
2023-05-05T01:41:43.382Z,101515.97
2023-05-05T01:41:53.001Z,101516.03
2023-05-05T01:42:05.465Z,101489.25
2023-05-05T01:42:15.161Z,101513.47
2023-05-05T01:42:24.234Z,101503.13
2023-05-05T01:42:35.513Z,101510.00
2023-05-05T01:42:44.788Z,101510.00
2023-05-05T01:42:57.196Z,101501.38
2023-05-05T01:43:08.386Z,101511.78
2023-05-05T01:43:20.400Z,101504.81
2023-05-05T01:43:31.422Z,101518.75
2023-05-05T01:43:44.117Z,101503.97
2023-05-05T01:43:53.909Z,101510.00
2023-05-05T01:44:06.011Z,101515.25
2023-05-05T01:44:16.690Z,101512.63
2023-05-05T01:44:26.632Z,101512.63
2023-05-05T01:44:36.710Z,101500.53
2023-05-05T01:44:45.614Z,101500.50
2023-05-05T01:44:56.704Z,101503.13
2023-05-05T01:45:08.282Z,101506.59
2023-05-05T01:45:21.347Z,101507.50
2023-05-05T01:45:35.186Z,101492.78
2023-05-05T01:45:45.248Z,101513.59
2023-05-05T01:45:54.429Z,101493.59
2023-05-05T01:46:03.812Z,101510.09
2023-05-05T01:46:12.614Z,101496.28
2023-05-05T01:46:23.954Z,101511.84
2023-05-05T01:46:35.183Z,101510.13
2023-05-05T01:46:53.628Z,101510.13
2023-05-05T01:47:01.948Z,101498.88
2023-05-05T01:47:14.826Z,101511.91
2023-05-05T01:47:24.225Z,101506.69
2023-05-05T01:47:32.999Z,101460.84
2023-05-05T01:47:42.911Z,101508.47
2023-05-05T01:48:02.508Z,101504.09
2023-05-05T01:48:12.631Z,101508.47
2023-05-05T01:48:20.850Z,101501.50
2023-05-05T01:48:30.068Z,101508.44
2023-05-05T01:48:40.329Z,101506.69
2023-05-05T01:48:52.001Z,101508.47
2023-05-05T01:49:10.245Z,101504.94
2023-05-05T01:49:17.672Z,101504.13
2023-05-05T01:49:26.453Z,101511.03
2023-05-05T01:49:35.770Z,101504.09
2023-05-05T01:49:44.796Z,101509.34
2023-05-05T01:49:52.956Z,101506.69
2023-05-05T01:50:14.160Z,101510.19
2023-05-05T01:50:25.263Z,101506.69
2023-05-05T01:50:33.069Z,101496.38
2023-05-05T01:50:43.407Z,101505.91
2023-05-05T01:50:52.328Z,101511.13
2023-05-05T01:51:02.352Z,101499.84
2023-05-05T01:51:23.786Z,101516.38
2023-05-05T01:51:32.017Z,101494.72
2023-05-05T01:51:40.992Z,101508.59
2023-05-05T01:51:50.256Z,101509.47
2023-05-05T01:51:59.069Z,101506.06
2023-05-05T01:52:09.919Z,101493.97
2023-05-05T01:52:27.182Z,101514.72
2023-05-05T01:52:36.208Z,101513.88
2023-05-05T01:52:45.922Z,101496.56
2023-05-05T01:52:54.794Z,101513.03
2023-05-05T01:53:03.766Z,101499.19
2023-05-05T01:53:12.249Z,101492.25
2023-05-05T01:53:31.555Z,101506.94
2023-05-05T01:53:39.721Z,101512.22
2023-05-05T01:53:47.408Z,101516.50
2023-05-05T01:54:02.898Z,101509.63
2023-05-05T01:54:11.028Z,101514.84
2023-05-05T01:54:20.292Z,101512.16
2023-05-05T01:54:38.540Z,101522.59
2023-05-05T01:54:46.901Z,101502.69
2023-05-05T01:54:55.140Z,101517.41
2023-05-05T01:55:04.791Z,101510.44
2023-05-05T01:55:12.582Z,101513.94
2023-05-05T01:55:27.346Z,101501.88
2023-05-05T01:55:46.421Z,101520.94
2023-05-05T01:55:57.550Z,101504.56
2023-05-05T01:56:08.660Z,101504.53
2023-05-05T01:56:17.009Z,101520.19
2023-05-05T01:56:27.707Z,101512.34
2023-05-05T01:56:37.879Z,101511.47
2023-05-05T01:56:49.316Z,101502.81
2023-05-05T01:56:59.418Z,101507.16
2023-05-05T01:57:08.807Z,101513.22
2023-05-05T01:57:18.151Z,101506.31
2023-05-05T01:57:34.110Z,101493.31
2023-05-05T01:57:43.223Z,101517.56
2023-05-05T01:57:51.612Z,101509.75
2023-05-05T01:58:00.077Z,101515.81
2023-05-05T01:58:10.145Z,101506.31
2023-05-05T01:58:18.567Z,101513.25
2023-05-05T01:58:39.025Z,101508.03
2023-05-05T01:58:47.595Z,101517.59
2023-05-05T01:59:01.240Z,101514.94
2023-05-05T01:59:10.141Z,101520.22
2023-05-05T01:59:18.316Z,101519.34
2023-05-05T01:59:26.863Z,101508.06
2023-05-05T01:59:43.862Z,101516.75
2023-05-05T01:59:52.780Z,101498.56
2023-05-05T02:00:03.720Z,101515.03
2023-05-05T02:00:27.197Z,101509.81
2023-05-05T02:00:35.459Z,101515.94
2023-05-05T02:00:44.293Z,101514.22
2023-05-05T02:00:52.936Z,101502.00
2023-05-05T02:01:01.432Z,101515.88
2023-05-05T02:01:10.710Z,101510.75
2023-05-05T02:01:29.712Z,101508.16
2023-05-05T02:01:41.705Z,101485.69
2023-05-05T02:01:52.271Z,101513.34
2023-05-05T02:02:04.010Z,101517.66
2023-05-05T02:02:13.788Z,101513.34
2023-05-05T02:02:22.924Z,101513.38
2023-05-05T02:02:31.715Z,101509.94
2023-05-05T02:02:50.106Z,101507.38
2023-05-05T02:03:00.004Z,101505.63
2023-05-05T02:03:09.394Z,101503.06
2023-05-05T02:03:18.409Z,101512.59
2023-05-05T02:03:27.893Z,101508.28
2023-05-05T02:03:41.740Z,101508.19
2023-05-05T02:03:51.508Z,101516.09
2023-05-05T02:04:00.026Z,101503.06
2023-05-05T02:04:10.016Z,101520.47
2023-05-05T02:04:22.897Z,101497.03
2023-05-05T02:04:32.415Z,101499.63
2023-05-05T02:04:44.035Z,101515.19
2023-05-05T02:04:53.257Z,101507.38
2023-05-05T02:05:01.931Z,101511.78
2023-05-05T02:05:13.186Z,101511.81
2023-05-05T02:05:22.995Z,101517.88
2023-05-05T02:05:41.025Z,101517.84
2023-05-05T02:05:49.543Z,101500.47
2023-05-05T02:05:58.594Z,101508.34
2023-05-05T02:06:08.649Z,101517.00
2023-05-05T02:06:17.678Z,101485.84
2023-05-05T02:06:27.045Z,101509.16
2023-05-05T02:06:50.627Z,101508.31
2023-05-05T02:07:01.748Z,101494.50
2023-05-05T02:07:11.416Z,101509.22
2023-05-05T02:07:20.079Z,101501.47
2023-05-05T02:07:28.480Z,101513.59
2023-05-05T02:07:36.971Z,101504.88
2023-05-05T02:07:59.827Z,101494.59
2023-05-05T02:08:10.002Z,101511.81
2023-05-05T02:08:21.125Z,101496.28
2023-05-05T02:08:31.083Z,101504.06
2023-05-05T02:08:43.272Z,101512.78
2023-05-05T02:08:51.704Z,101498.84
2023-05-05T02:09:01.754Z,101495.38
2023-05-05T02:09:13.193Z,101508.38
2023-05-05T02:09:21.897Z,101496.25
2023-05-05T02:09:32.997Z,101506.69
2023-05-05T02:09:45.276Z,101498.00
2023-05-05T02:09:53.419Z,101511.00
2023-05-05T02:10:13.823Z,101504.97
2023-05-05T02:10:21.348Z,101508.44
2023-05-05T02:10:31.238Z,101502.41
2023-05-05T02:10:41.062Z,101507.63
2023-05-05T02:10:49.863Z,101507.63
2023-05-05T02:10:58.055Z,101498.03
2023-05-05T02:11:17.520Z,101511.06
2023-05-05T02:11:30.818Z,101499.81
2023-05-05T02:11:39.308Z,101510.25
2023-05-05T02:11:46.675Z,101506.75
2023-05-05T02:11:55.392Z,101514.59
2023-05-05T02:12:07.953Z,101510.25
2023-05-05T02:12:24.882Z,101508.44
2023-05-05T02:12:33.646Z,101493.78
2023-05-05T02:12:42.867Z,101510.19
2023-05-05T02:12:52.440Z,101511.06
2023-05-05T02:13:01.994Z,101507.63
2023-05-05T02:13:15.535Z,101491.19
2023-05-05T02:13:25.151Z,101507.63
2023-05-05T02:13:43.112Z,101509.38
2023-05-05T02:13:56.209Z,101508.50
2023-05-05T02:14:05.603Z,101504.22
2023-05-05T02:14:14.204Z,101513.72
2023-05-05T02:14:25.060Z,101489.44
2023-05-05T02:14:33.791Z,101514.59
2023-05-05T02:14:43.225Z,101507.63
2023-05-05T02:15:01.779Z,101506.78
2023-05-05T02:15:11.428Z,101511.13
2023-05-05T02:15:23.000Z,101513.72
2023-05-05T02:15:34.596Z,101518.06
2023-05-05T02:15:43.533Z,101512.88
2023-05-05T02:15:51.479Z,101518.94
2023-05-05T02:16:02.319Z,101513.75
2023-05-05T02:16:13.517Z,101517.22
2023-05-05T02:16:31.359Z,101513.78
2023-05-05T02:16:41.424Z,101505.13
2023-05-05T02:16:52.046Z,101507.78
2023-05-05T02:17:04.821Z,101504.34
2023-05-05T02:17:13.631Z,101501.69
2023-05-05T02:17:23.599Z,101513.81
2023-05-05T02:17:33.072Z,101522.50
2023-05-05T02:17:42.847Z,101507.75
2023-05-05T02:17:53.027Z,101505.97
2023-05-05T02:18:10.163Z,101515.53
2023-05-05T02:18:20.957Z,101515.56
2023-05-05T02:18:28.807Z,101506.06
2023-05-05T02:18:37.136Z,101520.81
2023-05-05T02:18:47.419Z,101519.94
2023-05-05T02:18:57.773Z,101499.16